Blackville, Canada
Current Conditions -  °F | °C
As of 12:00 AM on Monday 24 Nov 2014 (Local Time) from CZBF Reporting Station
Overcast Overcast  
Wind Chill: 32°   Ceiling: 4000
Heat Index: 32°   Visibility: 15mi
Dew Point: 28°   Wind: 3mph
Humidity: 87%   Direction: NA
Pressure: 30.14"   Gusts: NA
Location:  46.73°N, 65.83°W
Report Text: CZBF 240400Z VRB03KT 15SM OVC040 M00/M02 A3014 RMK SC8 SLP208
Loading
Personal Weather Stations






























Interactive Weather Map New forecast layout! Learn more

10-Day Weather Forecast

Advertisements
Track Severe Weather on mobile